Latest Weather Observations for Liawenee

IDT60801

Issued at 7:32 am EST Saturday 19 August 2017 (issued every 30 minutes, with the page automatically refreshed every 10 minutes)

About weather observations | Map of weather stations | Latest weather observations for TAS | Other Formats
Station Details ID: 096033 Name: LIAWENEE Lat: -41.90 Lon: 146.67 Height: 1057.0 m
Data from the previous 72 hours. | See also: Recent months at Liawenee
Date/Time
EST
Temp
°C
App
Temp
°C
Dew
Point
°C
Rel
Hum
%
Delta-T
°C
Wind Press
QNH
hPa
Press
MSL
hPa
Rain since
9am
mm
Dir  Spd
km/h
Gust
km/h
Spd
kts
Gust
kts
19/07:30am -4.0 -7.8 -4.1 99 -0.1 W 7 9 4 5 1019.1 1021.2 1.2
19/07:00am -4.0 -8.2 -4.1 99 -0.1 SW 9 13 5 7 1018.4 1020.5 1.2
19/06:30am -4.2 -8.8 -4.3 99 -0.1 SW 11 13 6 7 1018.1 1020.2 1.2
19/06:00am -3.7 -9.0 -3.8 99 -0.1 SSW 15 22 8 12 1017.6 1019.7 1.2
19/05:30am -3.1 -8.7 -3.2 99 -0.1 SSW 17 22 9 12 1017.4 1019.5 1.2
19/05:00am -3.7 -8.6 -3.8 99 -0.1 SW 13 19 7 10 1017.0 1019.0 1.2
19/04:30am -4.5 -8.8 -4.6 99 -0.2 SW 9 13 5 7 1016.7 1018.8 1.2
19/04:00am -5.3 -10.4 -5.4 99 -0.2 SW 13 17 7 9 1016.2 1018.3 1.2
19/03:30am -4.2 -10.0 -4.3 99 -0.1 SW 17 20 9 11 1015.9 1017.9 1.2
19/03:00am -3.3 -9.4 -3.6 98 0.0 SSW 19 28 10 15 1015.6 1017.7 1.2
19/02:30am -3.1 -10.1 -3.8 95 0.1 SSW 24 35 13 19 1015.5 1017.6 1.2
19/02:00am -3.2 -9.8 -3.3 99 -0.1 SSW 22 32 12 17 1015.3 1017.3 1.2
19/01:30am -3.0 -10.3 -3.1 99 -0.1 SSW 26 35 14 19 1015.0 1017.0 1.2
19/01:00am -3.2 -10.9 -3.3 99 -0.1 SSW 28 35 15 19 1014.3 1016.3 1.2
19/12:30am -2.7 -10.0 -2.8 99 -0.1 SSW 26 33 14 18 1014.1 1016.1 1.2
19/12:00am -3.0 -10.4 -3.3 98 0.0 SSW 26 35 14 19 1013.4 1015.4 1.2
 
Date/Time
EST
Temp
°C
App
Temp
°C
Dew
Point
°C
Rel
Hum
%
Delta-T
°C
Wind Press
QNH
hPa
Press
MSL
hPa
Rain since
9am
mm
Dir  Spd
km/h
Gust
km/h
Spd
kts
Gust
kts
18/11:30pm -2.9 -10.3 -3.3 97 0.0 S 26 35 14 19 1013.3 1015.3 1.2
18/11:00pm -2.9 -9.5 -3.0 99 -0.1 SSW 22 28 12 15 1013.1 1015.1 1.2
18/10:30pm -2.8 -11.0 -3.6 94 0.1 SSW 30 41 16 22 1012.9 1014.8 1.2
18/10:00pm -2.5 -9.4 -2.6 99 -0.1 SSW 24 35 13 19 1012.6 1014.6 1.2
18/09:30pm -2.3 -9.5 -2.4 99 -0.1 SSW 26 35 14 19 1012.2 1014.2 1.2
18/09:00pm -2.2 -9.8 -2.3 99 -0.1 SSW 28 35 15 19 1011.5 1013.5 1.2
18/08:30pm -2.0 -10.0 -2.1 99 -0.1 SSW 30 43 16 23 1010.9 1012.8 1.2
18/08:00pm -1.9 -9.9 -2.0 99 -0.1 SSW 30 41 16 22 1010.3 1012.2 1.0
18/07:30pm -2.3 -9.9 -2.4 99 -0.1 SSW 28 44 15 24 1009.6 1011.5 1.0
18/07:00pm -2.1 -10.5 -2.2 99 -0.1 SSW 32 46 17 25 1009.1 1011.0 1.0
18/06:30pm -1.8 -10.1 -1.9 99 -0.1 SSW 32 43 17 23 1008.4 1010.3 1.0
18/06:00pm -1.5 -9.4 -1.6 99 0.0 SW 30 35 16 19 1008.1 1010.0 1.0
18/05:30pm -1.3 -8.8 -1.4 99 0.0 SSW 28 39 15 21 1007.2 1009.0 1.0
18/05:00pm -1.3 -9.2 -1.4 99 0.0 SSW 30 44 16 24 1006.5 1008.4 0.8
18/04:30pm -0.9 -8.7 -1.0 99 0.0 SW 30 39 16 21 1005.7 1007.4 0.6
18/04:00pm -0.4 -7.8 -0.7 98 0.1 SW 28 39 15 21 1005.1 1006.9 0.6
18/03:30pm 0.7 -7.0 -0.3 93 0.4 SW 30 37 16 20 1004.3 1006.1 0.6
18/03:00pm 0.3 -6.6 0.0 98 0.1 SW 26 33 14 18 1003.9 1005.6 0.6
18/02:30pm -0.6 -8.8 -0.7 99 0.0 SW 32 43 17 23 1003.6 1005.3 0.6
18/02:00pm -0.1 -7.8 -0.2 99 0.0 SSW 30 44 16 24 1002.8 1004.5 0.6
18/01:30pm -0.5 -8.6 -0.6 99 0.0 SSW 32 43 17 23 1002.4 1004.2 0.4
18/01:00pm 0.7 -6.5 0.6 99 0.0 SW 28 35 15 19 1001.8 1003.5 0.2
18/12:30pm 0.0 -6.9 -0.1 99 0.0 SSW 26 33 14 18 1001.6 1003.2 0.0
18/12:00pm 0.7 -5.8 0.6 99 0.0 SSW 24 33 13 18 1001.2 1002.9 0.0
18/11:30am 0.6 -6.7 0.2 97 0.2 SW 28 39 15 21 1001.1 1002.8 0.0
18/11:00am 1.1 -4.9 0.8 98 0.1 SW 22 30 12 16 1000.7 1002.3 0.0
18/10:30am -0.2 -7.2 -0.3 99 0.0 SSW 26 35 14 19 1000.6 1002.2 0.0
18/10:00am -0.3 -6.9 -0.4 99 0.0 SSW 24 32 13 17 1000.1 1001.8 0.0
18/09:30am -0.4 -6.6 -0.5 99 0.0 SW 22 32 12 17 999.7 1001.3 0.0
18/09:00am -0.4 -5.7 -0.5 99 0.0 SSW 17 22 9 12 998.9 1000.5 2.6
18/08:30am -0.7 -6.0 -0.8 99 0.0 SW 17 20 9 11 998.3 999.9 2.6
18/08:00am -1.1 -6.5 -1.2 99 0.0 SSW 17 22 9 12 997.8 999.4 2.6
18/07:30am -1.8 -6.1 -1.9 99 -0.1 SW 11 15 6 8 997.2 998.8 2.6
18/07:00am -1.8 -7.3 -1.9 99 -0.1 WSW 17 22 9 12 996.9 998.5 2.4
18/06:30am -1.5 -6.6 -1.6 99 0.0 SW 15 20 8 11 996.3 997.9 2.4
18/06:00am -2.5 -6.9 -2.6 99 -0.1 WSW 11 15 6 8 995.9 997.4 2.4
18/05:30am -2.3 -6.7 -2.4 99 -0.1 WSW 11 19 6 10 995.2 996.8 2.4
18/05:00am -2.1 -7.6 -2.2 99 -0.1 WSW 17 20 9 11 994.9 996.4 2.4
18/04:30am -2.1 -6.1 -2.2 99 -0.1 WSW 9 13 5 7 994.6 996.1 2.4
18/04:00am -1.8 -5.8 -1.9 99 -0.1 W 9 13 5 7 994.5 996.0 2.4
18/03:30am -2.5 -6.5 -2.6 99 -0.1 W 9 13 5 7 994.2 995.7 2.4
18/03:00am -3.8 -8.0 -3.9 99 -0.1 W 9 11 5 6 994.1 995.6 2.4
18/02:30am -2.8 -7.3 -2.9 99 -0.1 W 11 15 6 8 993.9 995.4 2.4
18/02:00am -2.3 -6.3 -2.4 99 -0.1 NW 9 11 5 6 993.9 995.4 2.4
18/01:30am -2.6 -6.3 -2.7 99 -0.1 W 7 13 4 7 993.7 995.2 2.2
18/01:00am -1.9 -7.8 -2.0 99 -0.1 WSW 19 26 10 14 993.5 994.9 2.2
18/12:30am -1.8 -8.2 -1.9 99 -0.1 WSW 22 32 12 17 993.1 994.6 2.2
18/12:00am -1.8 -8.2 -1.9 99 -0.1 WSW 22 30 12 16 993.1 994.6 2.2
 
Date/Time
EST
Temp
°C
App
Temp
°C
Dew
Point
°C
Rel
Hum
%
Delta-T
°C
Wind Press
QNH
hPa
Press
MSL
hPa
Rain since
9am
mm
Dir  Spd
km/h
Gust
km/h
Spd
kts
Gust
kts
17/11:30pm -1.7 -7.2 -1.8 99 0.0 W 17 24 9 13 993.0 994.5 2.0
17/11:00pm -1.6 -7.0 -1.7 99 0.0 WSW 17 22 9 12 993.1 994.6 2.0
17/10:30pm -1.1 -6.1 -1.2 99 0.0 WSW 15 20 8 11 993.2 994.7 2.0
17/10:00pm -1.2 -6.2 -1.3 99 0.0 WSW 15 20 8 11 993.5 994.9 1.6
17/09:30pm -0.9 -5.1 -1.0 99 0.0 SW 11 13 6 7 993.2 994.7 1.2
17/09:00pm -1.5 -6.2 -1.6 99 0.0 WSW 13 19 7 10 993.2 994.7 0.8
17/08:30pm -1.7 -7.2 -1.8 99 0.0 SW 17 20 9 11 992.8 994.3 0.8
17/08:00pm -0.6 -6.9 -0.7 99 0.0 WSW 22 32 12 17 992.4 993.8 0.8
17/07:30pm -0.5 -7.9 -0.6 99 0.0 WSW 28 46 15 25 992.5 993.9 0.6
17/07:29pm -0.5 -7.9 -0.6 99 0.0 WSW 28 46 15 25 992.5 993.9 0.6
17/07:00pm -0.3 -8.0 -0.4 99 0.0 WSW 30 39 16 21 992.0 993.5 0.4
17/06:30pm -0.4 -8.2 -0.5 99 0.0 W 30 43 16 23 991.4 992.8 0.4
17/06:00pm -0.3 -7.7 -0.4 99 0.0 W 28 41 15 22 990.6 992.0 0.4
17/05:30pm -0.1 -6.7 -0.2 99 0.0 W 24 35 13 19 990.8 992.2 0.4
17/05:00pm 0.1 -8.2 0.0 99 0.0 W 33 46 18 25 990.6 992.0 0.4
17/04:30pm 0.5 -6.4 0.4 99 0.0 W 26 35 14 19 990.8 992.2 0.2
17/04:00pm 2.0 -4.5 0.2 88 0.7 WSW 24 33 13 18 990.5 991.9 0.2
17/03:30pm 2.4 -4.8 0.8 89 0.6 W 28 33 15 18 990.1 991.5 0.2
17/03:00pm 1.2 -6.7 0.8 97 0.2 W 32 43 17 23 989.9 991.3 0.2
17/02:42pm 2.6 -5.4 0.7 87 0.8 W 32 52 17 28 989.6 991.0 0.2
17/02:30pm 2.6 -5.5 1.3 91 0.5 W 33 48 18 26 989.4 990.7 0.2
17/02:00pm 1.2 -6.7 1.1 99 0.0 WNW 32 41 17 22 989.6 991.0 0.2
17/01:30pm 2.5 -5.6 1.2 91 0.5 W 33 52 18 28 989.6 991.0 0.2
17/01:21pm 2.8 -4.3 1.6 92 0.5 W 28 46 15 25 989.5 990.8 0.2
17/01:00pm 1.8 -6.1 1.2 96 0.2 W 32 44 17 24 989.7 991.1 0.2
17/12:46pm 2.5 -4.6 1.6 94 0.4 W 28 46 15 25 989.9 991.3 0.2
17/12:30pm 2.0 -5.4 1.9 99 0.0 WNW 30 43 16 23 989.8 991.2 0.2
17/12:17pm 1.9 -5.6 1.3 96 0.2 W 30 48 16 26 989.9 991.3 0.2
17/12:00pm 2.1 -4.5 2.0 99 0.0 WNW 26 37 14 20 990.0 991.4 0.2
17/11:30am 1.6 -5.9 1.5 99 0.0 WNW 30 43 16 23 990.0 991.4 0.2
17/11:14am 1.5 -5.6 1.1 97 0.2 W 28 46 15 25 990.0 991.4 0.2
17/11:00am 1.0 -6.5 0.9 99 0.0 WNW 30 41 16 22 989.9 991.3 0.2
17/10:30am 1.0 -5.4 0.9 99 0.0 W 24 33 13 18 990.0 991.4 0.2
17/10:00am 0.9 -6.7 0.8 99 0.0 W 30 43 16 23 989.9 991.3 0.2
17/09:49am 0.5 -6.7 0.4 99 0.0 W 28 46 15 25 989.9 991.3 0.2
17/09:30am 0.4 -6.9 0.3 99 0.0 W 28 41 15 22 989.8 991.2 0.2
17/09:00am 0.1 -6.8 0.0 99 0.0 W 26 39 14 21 989.6 991.0 21.8
17/08:30am -0.1 -7.8 -0.2 99 0.0 W 30 44 16 24 989.6 991.0 20.6
17/08:00am -0.3 -7.7 -0.4 99 0.0 WNW 28 37 15 20 989.4 990.7 18.4
17/07:30am -0.6 -9.0 -0.7 99 0.0 W 33 56 18 30 989.1 990.5 18.4
17/07:06am -0.6 -8.4 -0.7 99 0.0 W 30 50 16 27 988.4 989.7 18.4
17/07:00am -0.5 -8.3 -0.6 99 0.0 W 30 43 16 23 988.1 989.5 18.4
17/06:30am -0.7 -10.2 -0.8 99 0.0 W 39 54 21 29 987.8 989.1 18.4
17/06:03am -0.5 -7.9 -0.6 99 0.0 W 28 46 15 25 988.0 989.4 18.2
17/06:00am -0.5 -7.9 -0.6 99 0.0 W 28 41 15 22 988.0 989.4 18.2
17/05:49am -0.6 -9.0 -0.7 99 0.0 W 33 52 18 28 987.7 989.0 18.2
17/05:30am -0.8 -10.3 -0.9 99 0.0 W 39 54 21 29 987.1 988.5 18.2
17/05:00am -0.5 -9.2 -0.6 99 0.0 W 35 54 19 29 987.5 988.8 18.0
17/04:30am -0.2 -9.3 -0.3 99 0.0 WNW 37 57 20 31 987.6 988.9 18.0
17/04:18am -0.2 -7.9 -0.3 99 0.0 W 30 48 16 26 987.5 988.8 17.8
17/04:00am -0.1 -8.2 -0.2 99 0.0 W 32 44 17 24 987.0 988.3 17.6
17/03:34am 0.3 -7.7 0.2 99 0.0 W 32 50 17 27 987.1 988.5 17.6
17/03:30am 0.4 -8.6 0.3 99 0.0 W 37 52 20 28 987.4 988.7 17.6
17/03:19am 0.3 -7.0 0.2 99 0.0 W 28 50 15 27 987.6 988.9 17.4
17/03:00am 0.4 -6.1 0.3 99 0.0 W 24 43 13 23 987.6 988.9 17.2
17/02:30am 0.8 -4.9 0.7 99 0.0 WNW 20 32 11 17 987.6 988.9 16.8
17/02:00am 0.8 -4.9 0.7 99 0.0 NW 20 30 11 16 987.5 988.8 16.8
17/01:30am 0.7 -5.4 0.6 99 0.0 WNW 22 39 12 21 988.5 989.8 16.2
17/01:00am 0.5 -6.7 0.4 99 0.0 WNW 28 39 15 21 988.5 989.8 15.6
17/12:30am 0.5 -7.5 0.4 99 0.0 W 32 48 17 26 988.7 990.0 15.2
17/12:10am 0.8 -6.8 0.7 99 0.0 WNW 30 48 16 26 988.6 989.9 14.8
17/12:00am 0.9 -7.0 0.8 99 0.0 WNW 32 44 17 24 988.7 990.0 14.4
 
Date/Time
EST
Temp
°C
App
Temp
°C
Dew
Point
°C
Rel
Hum
%
Delta-T
°C
Wind Press
QNH
hPa
Press
MSL
hPa
Rain since
9am
mm
Dir  Spd
km/h
Gust
km/h
Spd
kts
Gust
kts
16/11:30pm 0.6 -6.6 0.5 99 0.0 W 28 43 15 23 988.8 990.2 13.2
16/11:03pm 0.7 -7.5 0.6 99 0.0 WNW 33 52 18 28 989.1 990.5 12.6
16/11:00pm 0.7 -7.3 0.6 99 0.0 WNW 32 48 17 26 988.9 990.3 12.6
16/10:50pm 0.5 -7.5 0.4 99 0.0 WNW 32 54 17 29 989.3 990.6 12.6
16/10:30pm 0.4 -7.2 0.3 99 0.0 W 30 44 16 24 989.5 990.8 12.4
16/10:00pm 0.4 -8.9 0.3 99 0.0 WNW 39 57 21 31 989.6 991.0 12.0
16/09:34pm 0.5 -7.5 0.4 99 0.0 W 32 50 17 27 989.6 991.0 11.6
16/09:30pm 0.7 -8.2 0.6 99 0.0 W 37 50 20 27 989.3 990.6 11.4
16/09:00pm 0.7 -8.2 0.6 99 0.0 W 37 56 20 30 988.5 989.8 11.0
16/08:32pm 0.3 -8.7 0.2 99 0.0 W 37 63 20 34 988.5 989.8 10.6
16/08:30pm 0.3 -8.3 0.2 99 0.0 W 35 48 19 26 988.6 989.9 10.6
16/08:03pm 0.8 -9.2 0.7 99 0.0 W 43 61 23 33 988.8 990.2 10.4
16/08:00pm 1.0 -8.3 0.9 99 0.0 W 39 54 21 29 988.6 989.9 10.4
16/07:30pm 0.5 -8.8 0.4 99 0.0 W 39 57 21 31 987.8 989.1 10.0
16/07:01pm 1.0 -7.5 0.9 99 0.0 W 35 54 19 29 987.7 989.0 9.4
16/07:00pm 0.9 -8.0 0.8 99 0.0 W 37 54 20 29 987.7 989.0 9.4
16/06:32pm 1.1 -8.1 1.0 99 0.0 W 39 57 21 31 986.8 988.1 8.8
16/06:30pm 1.1 -7.8 1.0 99 0.0 W 37 54 20 29 986.8 988.1 8.8
16/06:00pm 0.8 -8.5 0.7 99 0.0 W 39 57 21 31 986.5 987.8 8.0
16/05:33pm 1.2 -7.3 1.1 99 0.0 W 35 57 19 31 985.8 987.1 7.8
16/05:30pm 1.2 -7.3 1.1 99 0.0 W 35 50 19 27 985.7 987.0 7.8
16/05:00pm 0.9 -8.0 0.8 99 0.0 W 37 57 20 31 985.4 986.6 7.6
16/04:30pm 1.7 -6.3 1.6 99 0.0 W 33 56 18 30 984.6 985.8 6.6
16/04:00pm 1.7 -6.3 1.6 99 0.0 W 33 48 18 26 984.8 986.1 6.0
16/03:31pm 1.9 -6.1 1.8 99 0.0 W 33 52 18 28 984.3 985.5 5.6
16/03:30pm 1.8 -6.0 1.7 99 0.0 WNW 32 48 17 26 984.2 985.4 5.6
16/03:00pm 3.1 -5.4 3.0 99 0.0 W 37 56 20 30 983.6 984.8 4.4
16/02:30pm 2.0 -7.1 1.9 99 0.0 W 39 61 21 33 983.8 985.0 4.0
16/02:10pm 3.2 -4.9 3.1 99 0.0 W 35 59 19 32 983.4 984.6 3.8
16/02:00pm 1.9 -6.8 1.8 99 0.0 W 37 54 20 29 983.3 984.5 3.8
16/01:30pm 2.7 -5.9 2.6 99 0.0 W 37 57 20 31 982.8 984.0 3.4
16/01:07pm 3.0 -3.8 2.9 99 0.0 W 28 54 15 29 983.2 984.4 3.2
16/01:00pm 3.2 -3.2 3.1 99 0.0 W 26 39 14 21 983.3 984.5 3.2
16/12:32pm 1.1 -7.4 1.0 99 0.0 W 35 54 19 29 983.8 985.0 2.4
16/12:30pm 1.3 -7.5 1.2 99 0.0 W 37 54 20 29 983.9 985.2 2.2
16/12:07pm 4.2 -3.7 4.1 99 0.0 W 35 54 19 29 983.0 984.2 1.6
16/12:00pm 3.5 -5.3 3.4 99 0.0 W 39 52 21 28 982.9 984.1 1.6
16/11:30am 4.4 -4.3 4.1 98 0.1 W 39 54 21 29 983.0 984.2 1.6
16/11:00am 4.0 -3.4 3.9 99 0.0 W 32 50 17 27 982.9 984.1 1.6
16/10:59am 4.2 -3.2 4.1 99 0.0 W 32 50 17 27 982.9 984.1 1.6
16/10:30am 3.5 -1.7 3.4 99 0.0 WNW 20 32 11 17 982.8 984.0 1.6
16/10:00am 1.3 -5.4 1.2 99 0.0 WNW 26 37 14 20 982.9 984.1 0.8
16/09:30am 2.9 -2.8 2.8 99 0.0 WNW 22 32 12 17 982.4 983.6 0.0
16/09:00am 3.0 -3.5 2.9 99 0.0 WNW 26 37 14 20 982.3 983.5 5.8
16/08:30am 2.2 -4.0 2.1 99 0.0 WNW 24 43 13 23 982.6 983.8 5.8
16/08:00am 1.7 -4.2 1.6 99 0.0 WNW 22 32 12 17 982.5 983.7 5.6

Other Formats:

Comma delimited format used in spreadsheet applications
http://www.bom.gov.au/fwo/IDT60801/IDT60801.95959.axf

JavaScript Object Notation format (JSON) in row-major order
http://www.bom.gov.au/fwo/IDT60801/IDT60801.95959.json